createdAt,value
2019-06-07T00:02:05.902Z,82.60
2019-06-07T00:04:36.630Z,83.10
2019-06-07T00:07:09.043Z,83.50
2019-06-07T00:09:39.531Z,83.70
2019-06-07T00:12:12.058Z,83.00
2019-06-07T00:14:42.336Z,82.60
2019-06-07T00:17:15.358Z,81.70
2019-06-07T00:19:45.174Z,81.20
2019-06-07T00:22:25.346Z,81.60
2019-06-07T00:24:47.936Z,84.50
2019-06-07T00:27:22.275Z,85.70
2019-06-07T00:29:50.763Z,86.60
2019-06-07T00:32:22.030Z,87.00
2019-06-07T00:34:52.933Z,88.00
2019-06-07T00:37:25.504Z,88.50
2019-06-07T00:40:13.528Z,89.30
2019-06-07T00:42:27.938Z,90.00
2019-06-07T00:44:58.474Z,90.30
2019-06-07T00:47:29.062Z,90.50
2019-06-07T00:49:59.648Z,90.90
2019-06-07T00:55:02.437Z,91.40
2019-06-07T00:57:34.107Z,91.50
2019-06-07T01:00:05.399Z,91.60
2019-06-07T01:02:37.339Z,91.80
2019-06-07T01:05:09.842Z,91.90
2019-06-07T01:07:40.427Z,92.00
2019-06-07T01:10:13.937Z,92.10
2019-06-07T01:12:45.627Z,92.10
2019-06-07T01:15:22.224Z,92.10
2019-06-07T01:18:33.138Z,92.20
2019-06-07T01:20:24.377Z,92.40
2019-06-07T01:22:55.028Z,92.50
2019-06-07T01:25:26.419Z,92.60
2019-06-07T01:27:58.458Z,92.70
2019-06-07T01:30:32.082Z,92.80
2019-06-07T01:33:04.617Z,92.80
2019-06-07T01:35:34.910Z,92.90
2019-06-07T01:38:05.440Z,92.80
2019-06-07T01:40:36.028Z,92.90
2019-06-07T01:43:06.530Z,92.90
2019-06-07T01:45:37.028Z,93.00
2019-06-07T01:48:07.518Z,93.00
2019-06-07T01:50:38.594Z,93.10
2019-06-07T01:53:09.122Z,93.10
2019-06-07T01:55:39.754Z,93.20
2019-06-07T01:58:10.316Z,93.20
2019-06-07T02:00:40.994Z,93.20
2019-06-07T02:03:11.713Z,93.10
2019-06-07T02:05:42.355Z,93.10
2019-06-07T02:08:13.015Z,93.10
2019-06-07T02:10:43.622Z,93.10
2019-06-07T02:13:14.220Z,93.10
2019-06-07T02:15:45.930Z,93.20
2019-06-07T02:18:16.558Z,93.30
2019-06-07T02:20:47.209Z,93.20
2019-06-07T02:23:20.328Z,93.10
2019-06-07T02:25:51.176Z,93.00
2019-06-07T02:28:36.195Z,92.90
2019-06-07T02:30:59.992Z,92.80
2019-06-07T02:33:35.128Z,92.80
2019-06-07T02:36:03.688Z,92.80
2019-06-07T02:38:37.500Z,92.70
2019-06-07T02:41:06.286Z,92.60
2019-06-07T02:43:37.431Z,92.50
2019-06-07T02:46:30.588Z,92.40
2019-06-07T02:48:56.299Z,92.20
2019-06-07T02:51:32.421Z,92.10
2019-06-07T02:53:58.894Z,92.10
2019-06-07T02:56:54.130Z,92.10
2019-06-07T02:59:03.597Z,92.10
2019-06-07T03:01:41.217Z,92.10
2019-06-07T03:04:07.684Z,92.20
2019-06-07T03:06:43.819Z,92.30
2019-06-07T03:09:13.295Z,92.30
2019-06-07T03:11:45.461Z,92.20
2019-06-07T03:14:20.943Z,92.10
2019-06-07T03:17:03.241Z,92.00
2019-06-07T03:19:41.490Z,91.90
2019-06-07T03:22:11.988Z,91.90
2019-06-07T03:24:45.520Z,92.10
2019-06-07T03:27:34.580Z,92.00
2019-06-07T03:29:49.022Z,92.10
2019-06-07T03:32:19.561Z,92.10
2019-06-07T03:34:50.095Z,92.30
2019-06-07T03:37:22.091Z,92.00
2019-06-07T03:39:52.642Z,92.00
2019-06-07T03:42:23.896Z,91.90
2019-06-07T03:44:55.316Z,91.70
2019-06-07T03:47:28.399Z,91.70
2019-06-07T03:49:58.271Z,91.70
2019-06-07T03:52:35.040Z,91.60
2019-06-07T03:55:03.316Z,91.70
2019-06-07T03:58:24.842Z,91.60
2019-06-07T04:00:06.960Z,91.70
2019-06-07T04:02:41.745Z,91.60
2019-06-07T04:05:10.970Z,91.80
2019-06-07T04:07:44.321Z,92.10
2019-06-07T04:10:13.803Z,91.80
2019-06-07T04:12:45.774Z,91.80
2019-06-07T04:15:16.530Z,91.80
2019-06-07T04:18:01.356Z,91.80
2019-06-07T04:20:19.465Z,91.60
2019-06-07T04:22:50.144Z,91.70
2019-06-07T04:25:20.580Z,91.70
2019-06-07T04:27:51.516Z,91.50
2019-06-07T04:30:41.471Z,91.50
2019-06-07T04:33:11.446Z,91.80
2019-06-07T04:35:43.354Z,91.20
2019-06-07T04:38:14.820Z,91.10
2019-06-07T04:40:47.104Z,91.60
2019-06-07T04:43:17.708Z,91.70
2019-06-07T04:45:51.573Z,91.70
2019-06-07T04:48:22.692Z,91.70
2019-06-07T04:50:57.088Z,91.70
2019-06-07T04:53:30.082Z,91.80
2019-06-07T04:56:00.463Z,91.90
2019-06-07T04:58:33.252Z,92.10
2019-06-07T05:01:04.280Z,92.30
2019-06-07T05:03:38.870Z,92.30
2019-06-07T05:06:08.139Z,92.50
2019-06-07T05:08:43.608Z,92.60
2019-06-07T05:11:11.170Z,92.80
2019-06-07T05:13:43.889Z,92.70
2019-06-07T05:16:13.876Z,93.10
2019-06-07T05:18:44.430Z,93.60
2019-06-07T05:21:15.152Z,94.10
2019-06-07T05:24:09.187Z,94.80
2019-06-07T05:26:18.092Z,95.30
2019-06-07T05:28:48.842Z,95.90
2019-06-07T05:31:19.656Z,95.90
2019-06-07T05:33:52.660Z,96.50
2019-06-07T05:36:23.231Z,96.50
2019-06-07T05:38:53.847Z,96.50
2019-06-07T05:41:24.316Z,96.10
2019-06-07T05:44:12.023Z,96.20
2019-06-07T05:46:28.186Z,96.20
2019-06-07T05:48:58.770Z,95.80
2019-06-07T05:51:32.256Z,95.50
2019-06-07T05:54:02.798Z,95.30
2019-06-07T05:56:33.385Z,94.90
2019-06-07T05:59:03.926Z,95.10
2019-06-07T06:01:45.939Z,95.20
2019-06-07T06:04:06.751Z,95.50
2019-06-07T06:06:39.603Z,95.20
2019-06-07T06:09:13.732Z,95.10
2019-06-07T06:11:55.263Z,95.40
2019-06-07T06:14:13.723Z,95.20
2019-06-07T06:16:47.416Z,95.00
2019-06-07T06:19:16.409Z,94.50
2019-06-07T06:21:46.943Z,94.50
2019-06-07T06:24:17.443Z,94.80
2019-06-07T06:26:54.113Z,95.10
2019-06-07T06:29:20.328Z,94.70
2019-06-07T06:32:39.755Z,94.80
2019-06-07T06:34:23.092Z,94.80
2019-06-07T06:36:53.641Z,94.30
2019-06-07T06:39:24.231Z,94.50
2019-06-07T06:42:03.167Z,94.70
2019-06-07T06:44:26.969Z,94.00
2019-06-07T06:46:58.670Z,94.50
2019-06-07T06:49:29.365Z,94.30
2019-06-07T06:52:00.149Z,94.20
2019-06-07T06:54:40.538Z,94.00
2019-06-07T06:57:19.065Z,94.10
2019-06-07T06:59:39.717Z,93.80
2019-06-07T07:02:09.565Z,93.30
2019-06-07T07:04:41.899Z,92.60
2019-06-07T07:07:12.553Z,92.50
2019-06-07T07:09:50.257Z,92.30
2019-06-07T07:12:17.860Z,92.80
2019-06-07T07:14:52.152Z,92.50
2019-06-07T07:17:45.316Z,92.90
2019-06-07T07:19:55.637Z,92.80
2019-06-07T07:22:27.853Z,92.90
2019-06-07T07:24:59.473Z,92.90
2019-06-07T07:27:30.173Z,93.50
2019-06-07T07:30:34.889Z,94.00
2019-06-07T07:32:33.079Z,93.90
2019-06-07T07:35:03.608Z,93.70
2019-06-07T07:37:34.224Z,93.80
2019-06-07T07:40:48.046Z,93.40
2019-06-07T07:42:39.235Z,93.60
2019-06-07T07:45:09.843Z,94.00
2019-06-07T07:48:00.775Z,93.60
2019-06-07T07:50:12.688Z,93.60
2019-06-07T07:52:45.869Z,93.50
2019-06-07T07:55:15.323Z,93.20
2019-06-07T07:57:48.234Z,93.40
2019-06-07T08:00:49.331Z,93.10
2019-06-07T08:02:53.747Z,92.90
2019-06-07T08:05:41.512Z,92.80
2019-06-07T08:07:59.809Z,92.60
2019-06-07T08:10:29.759Z,92.10
2019-06-07T08:13:21.945Z,91.50
2019-06-07T08:15:32.743Z,91.40
2019-06-07T08:18:04.390Z,90.90
2019-06-07T08:20:35.518Z,90.70
2019-06-07T08:23:06.125Z,91.00
2019-06-07T08:25:36.633Z,90.50
2019-06-07T08:28:07.457Z,90.70
2019-06-07T08:31:02.356Z,87.80
2019-06-07T08:33:25.570Z,85.90
2019-06-07T08:36:10.459Z,83.80
2019-06-07T08:38:25.991Z,82.10
2019-06-07T08:40:46.807Z,81.20
2019-06-07T08:43:20.571Z,83.00
2019-06-07T08:45:53.177Z,83.40
2019-06-07T08:48:28.120Z,84.30
2019-06-07T08:50:56.987Z,84.50
2019-06-07T08:53:28.611Z,85.90
2019-06-07T08:56:06.924Z,87.30
2019-06-07T08:58:31.237Z,87.90
2019-06-07T09:01:06.431Z,89.30
2019-06-07T09:03:34.078Z,90.00
2019-06-07T09:06:16.108Z,90.40
2019-06-07T09:08:36.824Z,90.20
2019-06-07T09:11:11.177Z,90.80
2019-06-07T09:13:39.519Z,90.70
2019-06-07T09:16:11.582Z,90.80
2019-06-07T09:18:44.896Z,90.70
2019-06-07T09:21:14.353Z,90.40
2019-06-07T09:23:44.954Z,90.10
2019-06-07T09:26:18.412Z,89.40
2019-06-07T09:28:47.947Z,89.10
2019-06-07T09:31:18.624Z,89.30
2019-06-07T09:33:49.059Z,88.30
2019-06-07T09:36:19.556Z,88.70
2019-06-07T09:38:50.883Z,88.00
2019-06-07T09:41:21.662Z,87.60
2019-06-07T09:44:04.681Z,88.40
2019-06-07T09:46:24.305Z,88.40
2019-06-07T09:49:13.963Z,88.50
2019-06-07T09:51:26.959Z,88.30
2019-06-07T09:53:58.520Z,87.80
2019-06-07T09:56:29.665Z,86.80
2019-06-07T09:59:03.077Z,86.80
2019-06-07T10:01:32.229Z,87.20
2019-06-07T10:04:08.285Z,86.20
2019-06-07T10:06:34.856Z,86.10
2019-06-07T10:11:39.530Z,85.30
2019-06-07T10:14:10.064Z,84.60
2019-06-07T10:16:46.469Z,83.40
2019-06-07T10:19:12.684Z,82.60
2019-06-07T10:21:43.175Z,82.60
2019-06-07T10:24:13.738Z,81.80
2019-06-07T10:26:44.315Z,81.10
2019-06-07T10:29:14.854Z,81.00
2019-06-07T10:31:45.369Z,79.50
2019-06-07T10:34:15.885Z,77.70
2019-06-07T10:36:46.446Z,78.50
2019-06-07T10:39:17.067Z,77.10
2019-06-07T10:41:47.529Z,75.50
2019-06-07T10:44:18.025Z,75.50
2019-06-07T10:46:48.627Z,74.80
2019-06-07T10:49:19.113Z,74.20
2019-06-07T10:51:49.650Z,73.00
2019-06-07T10:54:27.895Z,71.90
2019-06-07T10:56:52.515Z,71.50
2019-06-07T10:59:23.964Z,72.60
2019-06-07T11:01:54.446Z,74.10
2019-06-07T11:04:25.274Z,74.00
2019-06-07T11:06:55.736Z,74.90
2019-06-07T11:09:26.302Z,73.50
2019-06-07T11:11:56.798Z,72.90
2019-06-07T11:14:27.374Z,73.80
2019-06-07T11:16:57.999Z,73.40
2019-06-07T11:19:28.549Z,74.50
2019-06-07T11:21:59.032Z,73.30
2019-06-07T11:24:29.625Z,71.70
2019-06-07T11:27:00.146Z,71.20
2019-06-07T11:29:30.661Z,68.10
2019-06-07T11:32:01.185Z,66.90
2019-06-07T11:34:31.874Z,66.70
2019-06-07T11:37:02.617Z,69.80
2019-06-07T11:39:33.141Z,72.30
2019-06-07T11:42:03.746Z,73.40
2019-06-07T11:44:34.508Z,73.90
2019-06-07T11:47:06.407Z,75.10
2019-06-07T11:49:37.195Z,73.80
2019-06-07T11:52:07.832Z,73.20
2019-06-07T11:54:38.321Z,72.30
2019-06-07T11:57:08.973Z,72.60
2019-06-07T11:59:39.504Z,73.30
2019-06-07T12:02:11.457Z,73.90
2019-06-07T12:04:42.241Z,75.60
2019-06-07T12:07:14.164Z,73.90
2019-06-07T12:09:55.964Z,74.00
2019-06-07T12:12:17.159Z,74.20
2019-06-07T12:14:47.744Z,72.80
2019-06-07T12:17:19.506Z,73.40
2019-06-07T12:19:50.093Z,73.60
2019-06-07T12:22:20.599Z,72.10
2019-06-07T12:24:51.173Z,71.20
2019-06-07T12:27:22.250Z,70.80
2019-06-07T12:29:52.738Z,69.00
2019-06-07T12:32:23.198Z,69.60
2019-06-07T12:34:53.715Z,67.20
2019-06-07T12:37:42.057Z,68.30
2019-06-07T12:39:56.333Z,71.50
2019-06-07T12:42:26.821Z,71.10
2019-06-07T12:44:57.474Z,71.20
2019-06-07T12:47:27.889Z,70.00
2019-06-07T12:49:58.583Z,70.00
2019-06-07T12:52:30.132Z,67.60
2019-06-07T12:55:00.693Z,66.00
2019-06-07T12:57:31.269Z,65.60
2019-06-07T13:00:01.705Z,67.10
2019-06-07T13:02:32.330Z,67.70
2019-06-07T13:05:04.696Z,68.30
2019-06-07T13:07:35.201Z,68.40
2019-06-07T13:10:07.070Z,68.10
2019-06-07T13:12:37.557Z,66.30
2019-06-07T13:15:08.991Z,66.40
2019-06-07T13:17:39.495Z,66.90
2019-06-07T13:20:11.967Z,66.80
2019-06-07T13:22:42.510Z,65.50
2019-06-07T13:25:16.188Z,64.30
2019-06-07T13:27:47.945Z,64.10
2019-06-07T13:30:19.050Z,62.40
2019-06-07T13:32:49.884Z,61.70
2019-06-07T13:35:22.114Z,60.30
2019-06-07T13:37:52.500Z,60.80
2019-06-07T13:40:23.358Z,59.90
2019-06-07T13:42:55.256Z,60.20
2019-06-07T13:45:26.157Z,60.70
2019-06-07T13:47:56.790Z,60.50
2019-06-07T13:50:28.460Z,60.00
2019-06-07T13:52:59.549Z,59.80
2019-06-07T13:55:31.175Z,59.90
2019-06-07T13:58:01.628Z,58.90
2019-06-07T14:00:33.195Z,59.10
2019-06-07T14:03:05.592Z,60.30
2019-06-07T14:05:36.309Z,61.00
2019-06-07T14:08:06.866Z,60.80
2019-06-07T14:10:37.505Z,61.70
2019-06-07T14:13:08.130Z,61.60
2019-06-07T14:15:38.836Z,62.60
2019-06-07T14:18:09.529Z,63.00
2019-06-07T14:20:40.148Z,63.20
2019-06-07T14:23:10.668Z,63.20
2019-06-07T14:25:41.227Z,61.20
2019-06-07T14:28:12.114Z,61.50
2019-06-07T14:30:42.839Z,61.20
2019-06-07T14:33:13.480Z,60.90
2019-06-07T14:35:44.048Z,61.00
2019-06-07T14:38:14.711Z,60.50
2019-06-07T14:40:45.258Z,60.50
2019-06-07T14:43:15.848Z,60.50
2019-06-07T14:45:46.402Z,60.70
2019-06-07T14:48:17.939Z,59.50
2019-06-07T14:50:49.086Z,59.40
2019-06-07T14:53:20.496Z,59.60
2019-06-07T14:55:51.261Z,59.80
2019-06-07T14:58:21.889Z,60.20
2019-06-07T15:00:52.480Z,60.10
2019-06-07T15:03:23.010Z,59.80
2019-06-07T15:05:53.601Z,60.50
2019-06-07T15:08:24.269Z,60.80
2019-06-07T15:10:54.777Z,61.10
2019-06-07T15:13:25.396Z,60.70
2019-06-07T15:15:55.886Z,60.80
2019-06-07T15:18:27.591Z,60.80
2019-06-07T15:20:58.607Z,60.60
2019-06-07T15:23:29.391Z,60.60
2019-06-07T15:25:59.924Z,60.80
2019-06-07T15:28:32.222Z,60.60
2019-06-07T15:31:04.151Z,60.30
2019-06-07T15:33:36.411Z,61.20
2019-06-07T15:36:07.153Z,61.60
2019-06-07T15:38:39.947Z,60.80
2019-06-07T15:41:11.458Z,60.60
2019-06-07T15:43:41.961Z,60.50
2019-06-07T15:46:12.626Z,60.50
2019-06-07T15:48:44.459Z,60.40
2019-06-07T15:51:15.003Z,60.30
2019-06-07T15:53:45.648Z,60.60
2019-06-07T15:56:16.947Z,60.30
2019-06-07T15:58:47.400Z,60.30
2019-06-07T16:01:17.875Z,60.60
2019-06-07T16:03:48.388Z,60.60
2019-06-07T16:06:19.749Z,61.30
2019-06-07T16:08:50.659Z,61.40
2019-06-07T16:11:21.418Z,61.30
2019-06-07T16:13:52.019Z,61.00
2019-06-07T16:16:22.633Z,61.10
2019-06-07T16:18:53.334Z,61.10
2019-06-07T16:21:24.822Z,61.00
2019-06-07T16:23:55.307Z,60.80
2019-06-07T16:26:26.964Z,60.60
2019-06-07T16:28:57.431Z,59.70
2019-06-07T16:31:27.986Z,60.00
2019-06-07T16:33:58.542Z,59.70
2019-06-07T16:36:29.153Z,60.20
2019-06-07T16:38:59.777Z,60.60
2019-06-07T16:41:30.434Z,60.70
2019-06-07T16:44:01.069Z,60.50
2019-06-07T16:46:31.732Z,60.80
2019-06-07T16:49:02.330Z,60.90
2019-06-07T16:51:32.880Z,60.80
2019-06-07T16:54:03.449Z,60.80
2019-06-07T16:56:34.023Z,60.50
2019-06-07T16:59:04.577Z,60.50
2019-06-07T17:01:35.294Z,61.00
2019-06-07T17:04:05.857Z,61.70
2019-06-07T17:06:37.605Z,62.00
2019-06-07T17:09:08.980Z,61.00
2019-06-07T17:11:40.412Z,60.90
2019-06-07T17:14:11.207Z,61.20
2019-06-07T17:16:43.188Z,61.50
2019-06-07T17:19:14.048Z,61.60
2019-06-07T17:21:45.385Z,61.10
2019-06-07T17:24:16.071Z,60.80
2019-06-07T17:26:47.690Z,60.50
2019-06-07T17:29:19.398Z,60.40
2019-06-07T17:31:50.361Z,60.40
2019-06-07T17:34:22.762Z,60.20
2019-06-07T17:36:53.258Z,60.40
2019-06-07T17:39:23.898Z,60.50
2019-06-07T17:42:01.713Z,60.40
2019-06-07T17:44:26.656Z,60.90
2019-06-07T17:46:58.301Z,60.50
2019-06-07T17:49:29.016Z,60.80
2019-06-07T17:51:59.666Z,61.30
2019-06-07T17:54:30.184Z,61.40
2019-06-07T17:57:00.708Z,61.70
2019-06-07T17:59:31.770Z,61.80
2019-06-07T18:02:14.329Z,62.10
2019-06-07T18:04:34.985Z,62.30
2019-06-07T18:07:05.921Z,62.30
2019-06-07T18:09:38.100Z,62.40
2019-06-07T18:12:08.610Z,63.10
2019-06-07T18:14:39.194Z,63.10
2019-06-07T18:17:09.704Z,63.30
2019-06-07T18:19:41.004Z,63.30
2019-06-07T18:22:11.557Z,63.70
2019-06-07T18:24:42.088Z,63.90
2019-06-07T18:27:12.877Z,64.20
2019-06-07T18:29:43.612Z,64.70
2019-06-07T18:32:14.188Z,65.00
2019-06-07T18:34:46.781Z,65.50
2019-06-07T18:37:17.466Z,65.60
2019-06-07T18:39:48.934Z,66.00
2019-06-07T18:42:20.998Z,66.30
2019-06-07T18:44:53.120Z,66.50
2019-06-07T18:47:23.857Z,67.20
2019-06-07T18:49:55.560Z,66.80
2019-06-07T18:52:32.814Z,66.80
2019-06-07T18:55:03.434Z,67.20
2019-06-07T18:57:36.254Z,67.20
2019-06-07T19:00:08.509Z,67.30
2019-06-07T19:02:39.178Z,67.60
2019-06-07T19:05:10.255Z,68.10
2019-06-07T19:07:40.761Z,68.20
2019-06-07T19:10:12.042Z,68.80
2019-06-07T19:12:42.652Z,69.10
2019-06-07T19:15:14.086Z,69.10
2019-06-07T19:17:44.713Z,69.30
2019-06-07T19:20:16.108Z,69.50
2019-06-07T19:22:46.873Z,69.60
2019-06-07T19:25:17.769Z,69.90
2019-06-07T19:27:48.649Z,70.20
2019-06-07T19:30:19.438Z,70.30
2019-06-07T19:32:51.322Z,70.60
2019-06-07T19:35:21.949Z,70.70
2019-06-07T19:37:53.678Z,70.80
2019-06-07T19:40:24.449Z,71.30
2019-06-07T19:42:56.257Z,71.40
2019-06-07T19:45:30.970Z,71.60
2019-06-07T19:48:00.664Z,72.20
2019-06-07T19:50:31.542Z,72.90
2019-06-07T19:53:04.087Z,73.80
2019-06-07T19:55:34.833Z,73.60
2019-06-07T19:58:08.079Z,73.90
2019-06-07T20:00:40.324Z,74.20
2019-06-07T20:03:12.488Z,74.70
2019-06-07T20:05:43.111Z,74.90
2019-06-07T20:08:14.764Z,75.00
2019-06-07T20:10:46.381Z,75.10
2019-06-07T20:13:19.151Z,75.50
2019-06-07T20:15:49.303Z,74.80
2019-06-07T20:18:20.103Z,74.70
2019-06-07T20:20:50.948Z,75.00
2019-06-07T20:23:21.550Z,75.00
2019-06-07T20:25:52.119Z,75.10
2019-06-07T20:28:22.991Z,75.50
2019-06-07T20:30:53.559Z,75.70
2019-06-07T20:33:24.208Z,75.80
2019-06-07T20:35:56.604Z,75.60
2019-06-07T20:38:27.357Z,75.60
2019-06-07T20:40:58.936Z,75.50
2019-06-07T20:43:30.299Z,76.40
2019-06-07T20:46:03.290Z,76.00
2019-06-07T20:48:33.102Z,76.20
2019-06-07T20:51:04.619Z,76.70
2019-06-07T20:53:35.279Z,76.60
2019-06-07T20:56:06.829Z,77.00
2019-06-07T20:58:37.485Z,77.10
2019-06-07T21:01:09.008Z,77.20
2019-06-07T21:03:39.752Z,77.40
2019-06-07T21:06:10.304Z,77.40
2019-06-07T21:08:40.918Z,77.80
2019-06-07T21:11:11.413Z,77.90
2019-06-07T21:13:41.995Z,78.30
2019-06-07T21:16:12.576Z,78.80
2019-06-07T21:18:43.140Z,79.10
2019-06-07T21:21:13.689Z,79.50
2019-06-07T21:23:44.371Z,80.00
2019-06-07T21:26:14.919Z,80.40
2019-06-07T21:28:45.455Z,80.90
2019-06-07T21:31:16.021Z,81.20
2019-06-07T21:33:46.539Z,81.50
2019-06-07T21:36:17.095Z,81.40
2019-06-07T21:38:49.297Z,81.50
2019-06-07T21:41:19.874Z,81.60
2019-06-07T21:43:52.135Z,82.10
2019-06-07T21:46:22.755Z,82.10
2019-06-07T21:48:53.441Z,82.30
2019-06-07T21:51:23.999Z,82.00
2019-06-07T21:53:54.528Z,82.00
2019-06-07T21:56:25.067Z,82.20
2019-06-07T21:58:55.645Z,82.20
2019-06-07T22:01:30.849Z,82.30
2019-06-07T22:04:01.529Z,82.70
2019-06-07T22:06:33.349Z,83.10
2019-06-07T22:09:05.664Z,83.30
2019-06-07T22:11:36.366Z,83.60
2019-06-07T22:14:08.393Z,83.80
2019-06-07T22:16:39.019Z,83.80
2019-06-07T22:19:10.782Z,83.70
2019-06-07T22:21:41.403Z,83.60
2019-06-07T22:24:13.043Z,83.50
2019-06-07T22:26:43.789Z,83.90
2019-06-07T22:29:15.781Z,83.70
2019-06-07T22:31:46.394Z,83.90
2019-06-07T22:34:16.911Z,84.10
2019-06-07T22:36:47.547Z,84.10
2019-06-07T22:39:18.079Z,84.20
2019-06-07T22:41:48.677Z,84.00
2019-06-07T22:44:19.385Z,84.30
2019-06-07T22:46:49.981Z,84.20
2019-06-07T22:49:20.722Z,84.20
2019-06-07T22:51:51.202Z,84.00
2019-06-07T22:54:21.853Z,84.00
2019-06-07T22:56:57.286Z,84.70
2019-06-07T22:59:27.849Z,84.40
2019-06-07T23:01:59.550Z,84.70
2019-06-07T23:04:30.271Z,84.80
2019-06-07T23:07:00.785Z,85.10
2019-06-07T23:09:31.432Z,85.50
2019-06-07T23:12:01.964Z,86.20
2019-06-07T23:14:32.512Z,85.60
2019-06-07T23:17:03.221Z,85.90
2019-06-07T23:19:33.739Z,86.00
2019-06-07T23:22:05.557Z,86.10
2019-06-07T23:24:36.092Z,86.50
2019-06-07T23:27:06.799Z,87.00
2019-06-07T23:29:37.357Z,87.80
2019-06-07T23:32:07.913Z,87.30
2019-06-07T23:34:40.673Z,87.50
2019-06-07T23:37:11.311Z,87.60
2019-06-07T23:39:41.931Z,87.70
2019-06-07T23:42:17.579Z,87.80
2019-06-07T23:44:49.548Z,88.00
2019-06-07T23:47:22.397Z,88.10
2019-06-07T23:49:53.423Z,88.30
2019-06-07T23:52:24.337Z,88.70
2019-06-07T23:54:57.513Z,88.80
2019-06-07T23:57:29.564Z,89.10
